Aberdeen, South Dakota
Current Conditions -  °F | °C
As of 4:53 AM on Monday 22 Dec 2014 (Local Time) from KABR Reporting Station
Haze Haze  
Wind Chill:   Ceiling: 300
Heat Index:   Visibility: 4mi
Dew Point:   Wind: 3mph
Humidity: 92%   Direction: 160°SSE
Pressure: 29.42"   Gusts: NA
Location:  45.46°N, 98.49°W
Report Text: KABR 221053Z AUTO 16003KT 4SM BR OVC003 02/01 A2942 RMK AO2 SLP975 T00170006
Loading
Personal Weather Stations






























Interactive Weather Map New forecast layout! Learn more

10-Day Weather Forecast

Advertisements
Track Severe Weather on mobile